Placerville, CA

2:22 AM PST en Enero 27, 2015 (GMT -0800)
Lincoln Regional-Harder | Change Station
CLOSE
Current Station
Aeropuerto
Location: Lincoln,
Altura: 121 ft
Estaciones meteorológicas cercanas

Alt 121 ft 38.91 °N, 121.35 °W | Updated 7 minutes ago

Despejado
Despejado
46 ° F
Sensación térmica 45 ° F
N
4
Viento Variable Viento desde Sur

Hoy
Alta -- | Baja -- ° F
--% Posibilidad de precipitaciones
Ayer
Alta -- | Baja -- ° F
Precip. -- pul
7:13 AM 5:18 PM
Cuarto creciente, 52% visible
Presión 30.03 pul
Visibilidad 4.0 Millas
Nubes Despejado
Vientos helados 45 ° F
Punto de rocío 45 ° F
Humedad 93%
Precipitaciones 0.00 pul
Espesor de la nieve No disponible.
UV 0 de una escala de 12
Polen 5.80 de una escala de 12
Calidad del aire No disponible.
Flu Activity No disponible.
METAR KLHM 271015Z AUTO 19003KT 4SM CLR 08/07 A3003 RMK AO1

More Conditions Fewer Conditions

Presión 30.03 pul
Visibilidad 4.0 Millas
Nubes Despejado
Vientos helados 45 ° F
Punto de rocío 45 ° F
Humedad 93%
Precipitaciones 0.00 pul
Espesor de la nieve No disponible.
UV 0 de una escala de 12
Polen 5.80 de una escala de 12
Calidad del aire No disponible.
Flu Activity No disponible.
METAR KLHM 271015Z AUTO 19003KT 4SM CLR 08/07 A3003 RMK AO1

More Conditions Fewer Conditions

10-Day Weather Forecast

Almanac

Astronomía

Jan. 27, 2015 Salida Puesta
Hora real
Crepúsculo civil
Crepúsculo náutico
Crepúsculo astronómico
Luna
Horas de luz
Horas de luz
Tomorrow will be .
, % of the Moon is Illuminated

Extremos de hoy

Máximos del estado Bajos del estado

Community

WunderPhotos

Upload Photos

1,790,562 ¡fotos cargadas!

WunderBlogs® & News

Nearby

Calidad del aire

  Calidad del aire Índice AQ Contaminante
Not available.

Grosos de nieve

Estación Profundido Altura

Actividad de terremotos

Ciudad Distance Mag. Tiempo y dato
Magnitud mínima muestra es 2,5.

Temperaturas de aguas costeras

Lugar Temperatura

Estaciones meteorológicas cercanas